sensor_id;sensor_type;location;lat;lon;timestamp;P1;durP1;ratioP1;P2;durP2;ratioP2
60372;SDS011;46216;52.220;5.134;2023-08-17T00:01:22;4.32;;;2.22;;
60372;SDS011;46216;52.220;5.134;2023-08-17T00:03:48;3.90;;;2.00;;
60372;SDS011;46216;52.220;5.134;2023-08-17T00:06:13;5.32;;;2.05;;
60372;SDS011;46216;52.220;5.134;2023-08-17T00:08:39;4.18;;;2.30;;
60372;SDS011;46216;52.220;5.134;2023-08-17T00:11:07;4.38;;;2.00;;
60372;SDS011;46216;52.220;5.134;2023-08-17T00:13:33;5.43;;;2.05;;
60372;SDS011;46216;52.220;5.134;2023-08-17T00:15:58;3.40;;;1.88;;
60372;SDS011;46216;52.220;5.134;2023-08-17T00:18:23;4.38;;;1.90;;
60372;SDS011;46216;52.220;5.134;2023-08-17T00:20:49;6.40;;;1.90;;
60372;SDS011;46216;52.220;5.134;2023-08-17T00:23:14;4.32;;;2.20;;
60372;SDS011;46216;52.220;5.134;2023-08-17T00:25:42;4.68;;;1.90;;
60372;SDS011;46216;52.220;5.134;2023-08-17T00:28:07;4.78;;;1.90;;
60372;SDS011;46216;52.220;5.134;2023-08-17T00:30:33;3.17;;;1.70;;
60372;SDS011;46216;52.220;5.134;2023-08-17T00:33:01;7.10;;;1.85;;
60372;SDS011;46216;52.220;5.134;2023-08-17T00:35:27;5.28;;;1.75;;
60372;SDS011;46216;52.220;5.134;2023-08-17T00:37:52;2.50;;;1.70;;
60372;SDS011;46216;52.220;5.134;2023-08-17T00:40:18;5.30;;;1.90;;
60372;SDS011;46216;52.220;5.134;2023-08-17T00:42:43;3.97;;;1.92;;
60372;SDS011;46216;52.220;5.134;2023-08-17T00:45:09;2.75;;;1.75;;
60372;SDS011;46216;52.220;5.134;2023-08-17T00:47:35;3.47;;;1.95;;
60372;SDS011;46216;52.220;5.134;2023-08-17T00:50:00;4.13;;;1.73;;
60372;SDS011;46216;52.220;5.134;2023-08-17T00:52:26;3.55;;;1.80;;
60372;SDS011;46216;52.220;5.134;2023-08-17T00:54:51;4.40;;;2.10;;
60372;SDS011;46216;52.220;5.134;2023-08-17T00:57:17;3.58;;;1.73;;
60372;SDS011;46216;52.220;5.134;2023-08-17T00:59:44;5.78;;;2.00;;
60372;SDS011;46216;52.220;5.134;2023-08-17T01:02:11;4.10;;;1.80;;
60372;SDS011;46216;52.220;5.134;2023-08-17T01:04:37;9.45;;;2.35;;
60372;SDS011;46216;52.220;5.134;2023-08-17T01:07:02;6.40;;;1.95;;
60372;SDS011;46216;52.220;5.134;2023-08-17T01:09:27;5.40;;;2.05;;
60372;SDS011;46216;52.220;5.134;2023-08-17T01:11:57;4.63;;;1.90;;
60372;SDS011;46216;52.220;5.134;2023-08-17T01:14:32;6.18;;;2.30;;
60372;SDS011;46216;52.220;5.134;2023-08-17T01:17:10;4.00;;;1.90;;
60372;SDS011;46216;52.220;5.134;2023-08-17T01:19:47;3.55;;;2.17;;
60372;SDS011;46216;52.220;5.134;2023-08-17T01:22:14;4.50;;;2.28;;
60372;SDS011;46216;52.220;5.134;2023-08-17T01:24:45;5.43;;;1.98;;
60372;SDS011;46216;52.220;5.134;2023-08-17T01:27:10;3.90;;;2.00;;
60372;SDS011;46216;52.220;5.134;2023-08-17T01:29:36;5.32;;;2.20;;
60372;SDS011;46216;52.220;5.134;2023-08-17T01:32:19;2.67;;;2.10;;
60372;SDS011;46216;52.220;5.134;2023-08-17T01:34:52;7.75;;;2.83;;
60372;SDS011;46216;52.220;5.134;2023-08-17T01:37:23;7.78;;;2.40;;
60372;SDS011;46216;52.220;5.134;2023-08-17T01:39:53;5.50;;;2.38;;
60372;SDS011;46216;52.220;5.134;2023-08-17T01:42:22;5.97;;;2.55;;
60372;SDS011;46216;52.220;5.134;2023-08-17T01:44:49;4.00;;;2.05;;
60372;SDS011;46216;52.220;5.134;2023-08-17T01:47:15;3.42;;;2.15;;
60372;SDS011;46216;52.220;5.134;2023-08-17T01:49:40;4.03;;;2.15;;
60372;SDS011;46216;52.220;5.134;2023-08-17T01:52:05;5.63;;;2.42;;
60372;SDS011;46216;52.220;5.134;2023-08-17T01:54:31;5.53;;;2.20;;
60372;SDS011;46216;52.220;5.134;2023-08-17T01:56:56;4.43;;;2.30;;
60372;SDS011;46216;52.220;5.134;2023-08-17T01:59:22;5.22;;;2.38;;
60372;SDS011;46216;52.220;5.134;2023-08-17T02:01:47;3.95;;;2.13;;
60372;SDS011;46216;52.220;5.134;2023-08-17T02:04:12;4.05;;;2.30;;
60372;SDS011;46216;52.220;5.134;2023-08-17T02:06:38;5.88;;;2.10;;
60372;SDS011;46216;52.220;5.134;2023-08-17T02:09:03;5.07;;;2.30;;
60372;SDS011;46216;52.220;5.134;2023-08-17T02:11:29;4.95;;;1.98;;
60372;SDS011;46216;52.220;5.134;2023-08-17T02:13:54;5.47;;;2.20;;
60372;SDS011;46216;52.220;5.134;2023-08-17T02:16:20;4.68;;;2.20;;
60372;SDS011;46216;52.220;5.134;2023-08-17T02:18:46;4.18;;;2.30;;
60372;SDS011;46216;52.220;5.134;2023-08-17T02:21:12;6.82;;;2.70;;
60372;SDS011;46216;52.220;5.134;2023-08-17T02:23:37;5.18;;;2.50;;
60372;SDS011;46216;52.220;5.134;2023-08-17T02:26:02;6.25;;;2.20;;
60372;SDS011;46216;52.220;5.134;2023-08-17T02:28:28;3.28;;;2.10;;
60372;SDS011;46216;52.220;5.134;2023-08-17T02:30:56;5.07;;;2.40;;
60372;SDS011;46216;52.220;5.134;2023-08-17T02:33:23;4.68;;;2.30;;
60372;SDS011;46216;52.220;5.134;2023-08-17T02:35:49;5.05;;;2.45;;
60372;SDS011;46216;52.220;5.134;2023-08-17T02:38:15;4.97;;;2.70;;
60372;SDS011;46216;52.220;5.134;2023-08-17T02:40:40;5.55;;;2.20;;
60372;SDS011;46216;52.220;5.134;2023-08-17T02:43:06;5.35;;;2.47;;
60372;SDS011;46216;52.220;5.134;2023-08-17T02:45:33;4.88;;;2.60;;
60372;SDS011;46216;52.220;5.134;2023-08-17T02:47:58;3.22;;;2.20;;
60372;SDS011;46216;52.220;5.134;2023-08-17T02:50:24;4.35;;;2.17;;
60372;SDS011;46216;52.220;5.134;2023-08-17T02:52:49;7.25;;;2.70;;
60372;SDS011;46216;52.220;5.134;2023-08-17T02:55:15;5.05;;;2.67;;
60372;SDS011;46216;52.220;5.134;2023-08-17T02:57:40;4.88;;;2.58;;
60372;SDS011;46216;52.220;5.134;2023-08-17T03:00:06;5.35;;;2.80;;
60372;SDS011;46216;52.220;5.134;2023-08-17T03:02:32;6.53;;;2.70;;
60372;SDS011;46216;52.220;5.134;2023-08-17T03:04:57;7.03;;;2.55;;
60372;SDS011;46216;52.220;5.134;2023-08-17T03:07:22;6.28;;;2.80;;
60372;SDS011;46216;52.220;5.134;2023-08-17T03:09:48;3.72;;;2.28;;
60372;SDS011;46216;52.220;5.134;2023-08-17T03:12:13;7.22;;;2.35;;
60372;SDS011;46216;52.220;5.134;2023-08-17T03:14:38;3.75;;;2.38;;
60372;SDS011;46216;52.220;5.134;2023-08-17T03:17:04;6.18;;;2.35;;
60372;SDS011;46216;52.220;5.134;2023-08-17T03:19:29;3.35;;;2.20;;
60372;SDS011;46216;52.220;5.134;2023-08-17T03:21:55;3.97;;;2.30;;
60372;SDS011;46216;52.220;5.134;2023-08-17T03:24:20;4.85;;;2.35;;
60372;SDS011;46216;52.220;5.134;2023-08-17T03:26:46;4.65;;;2.22;;
60372;SDS011;46216;52.220;5.134;2023-08-17T03:29:11;5.18;;;2.33;;
60372;SDS011;46216;52.220;5.134;2023-08-17T03:31:36;4.07;;;2.38;;
60372;SDS011;46216;52.220;5.134;2023-08-17T03:34:02;5.78;;;2.28;;
60372;SDS011;46216;52.220;5.134;2023-08-17T03:36:27;3.97;;;2.08;;
60372;SDS011;46216;52.220;5.134;2023-08-17T03:38:53;5.30;;;2.13;;
60372;SDS011;46216;52.220;5.134;2023-08-17T03:41:18;4.28;;;2.17;;
60372;SDS011;46216;52.220;5.134;2023-08-17T03:43:44;4.90;;;2.35;;
60372;SDS011;46216;52.220;5.134;2023-08-17T03:46:09;3.70;;;2.20;;
60372;SDS011;46216;52.220;5.134;2023-08-17T03:48:34;6.38;;;2.50;;
60372;SDS011;46216;52.220;5.134;2023-08-17T03:51:00;6.32;;;2.50;;
60372;SDS011;46216;52.220;5.134;2023-08-17T03:53:26;4.18;;;2.40;;
60372;SDS011;46216;52.220;5.134;2023-08-17T03:55:52;6.53;;;2.42;;
60372;SDS011;46216;52.220;5.134;2023-08-17T03:58:17;3.15;;;1.90;;
60372;SDS011;46216;52.220;5.134;2023-08-17T04:00:50;4.75;;;1.90;;
60372;SDS011;46216;52.220;5.134;2023-08-17T04:03:16;3.75;;;1.80;;
60372;SDS011;46216;52.220;5.134;2023-08-17T04:05:42;4.43;;;2.00;;
60372;SDS011;46216;52.220;5.134;2023-08-17T04:08:08;4.05;;;2.33;;
60372;SDS011;46216;52.220;5.134;2023-08-17T04:10:33;4.43;;;1.90;;
60372;SDS011;46216;52.220;5.134;2023-08-17T04:12:58;4.53;;;2.10;;
60372;SDS011;46216;52.220;5.134;2023-08-17T04:15:24;6.18;;;2.10;;
60372;SDS011;46216;52.220;5.134;2023-08-17T04:17:50;5.22;;;1.98;;
60372;SDS011;46216;52.220;5.134;2023-08-17T04:20:15;5.18;;;1.90;;
60372;SDS011;46216;52.220;5.134;2023-08-17T04:22:41;3.35;;;1.80;;
60372;SDS011;46216;52.220;5.134;2023-08-17T04:25:06;4.22;;;2.03;;
60372;SDS011;46216;52.220;5.134;2023-08-17T04:27:32;4.20;;;1.83;;
60372;SDS011;46216;52.220;5.134;2023-08-17T04:29:58;5.05;;;2.00;;
60372;SDS011;46216;52.220;5.134;2023-08-17T04:32:23;4.80;;;2.00;;
60372;SDS011;46216;52.220;5.134;2023-08-17T04:34:49;5.30;;;2.00;;
60372;SDS011;46216;52.220;5.134;2023-08-17T04:37:14;3.53;;;2.00;;
60372;SDS011;46216;52.220;5.134;2023-08-17T04:39:40;5.63;;;2.10;;
60372;SDS011;46216;52.220;5.134;2023-08-17T04:42:06;4.30;;;1.95;;
60372;SDS011;46216;52.220;5.134;2023-08-17T04:44:31;4.70;;;1.80;;
60372;SDS011;46216;52.220;5.134;2023-08-17T04:46:57;4.13;;;1.90;;
60372;SDS011;46216;52.220;5.134;2023-08-17T04:49:23;3.95;;;1.70;;
60372;SDS011;46216;52.220;5.134;2023-08-17T04:51:48;4.57;;;1.92;;
60372;SDS011;46216;52.220;5.134;2023-08-17T04:54:13;4.47;;;1.95;;
60372;SDS011;46216;52.220;5.134;2023-08-17T04:56:40;4.22;;;1.80;;
60372;SDS011;46216;52.220;5.134;2023-08-17T04:59:05;5.80;;;2.00;;
60372;SDS011;46216;52.220;5.134;2023-08-17T05:01:30;3.97;;;1.65;;
60372;SDS011;46216;52.220;5.134;2023-08-17T05:03:57;3.67;;;1.75;;
60372;SDS011;46216;52.220;5.134;2023-08-17T05:06:22;5.15;;;1.70;;
60372;SDS011;46216;52.220;5.134;2023-08-17T05:08:48;4.70;;;2.00;;
60372;SDS011;46216;52.220;5.134;2023-08-17T05:11:13;2.83;;;1.60;;
60372;SDS011;46216;52.220;5.134;2023-08-17T05:13:38;6.20;;;2.40;;
60372;SDS011;46216;52.220;5.134;2023-08-17T05:16:04;4.63;;;1.80;;
60372;SDS011;46216;52.220;5.134;2023-08-17T05:18:30;6.05;;;2.00;;
60372;SDS011;46216;52.220;5.134;2023-08-17T05:20:55;6.82;;;2.05;;
60372;SDS011;46216;52.220;5.134;2023-08-17T05:23:20;3.45;;;1.70;;
60372;SDS011;46216;52.220;5.134;2023-08-17T05:25:46;4.97;;;2.25;;
60372;SDS011;46216;52.220;5.134;2023-08-17T05:28:12;4.20;;;1.90;;
60372;SDS011;46216;52.220;5.134;2023-08-17T05:30:38;4.60;;;1.92;;
60372;SDS011;46216;52.220;5.134;2023-08-17T05:33:03;4.38;;;1.90;;
60372;SDS011;46216;52.220;5.134;2023-08-17T05:35:29;6.80;;;1.90;;
60372;SDS011;46216;52.220;5.134;2023-08-17T05:37:54;4.13;;;1.90;;
60372;SDS011;46216;52.220;5.134;2023-08-17T05:40:23;6.47;;;2.00;;
60372;SDS011;46216;52.220;5.134;2023-08-17T05:42:48;4.13;;;2.00;;
60372;SDS011;46216;52.220;5.134;2023-08-17T05:45:13;6.22;;;2.00;;
60372;SDS011;46216;52.220;5.134;2023-08-17T05:47:39;3.35;;;1.85;;
60372;SDS011;46216;52.220;5.134;2023-08-17T05:50:05;5.05;;;1.88;;
60372;SDS011;46216;52.220;5.134;2023-08-17T05:52:31;7.50;;;2.47;;
60372;SDS011;46216;52.220;5.134;2023-08-17T05:54:56;4.57;;;2.20;;
60372;SDS011;46216;52.220;5.134;2023-08-17T05:57:22;4.60;;;2.08;;
60372;SDS011;46216;52.220;5.134;2023-08-17T05:59:47;6.18;;;2.13;;
60372;SDS011;46216;52.220;5.134;2023-08-17T06:02:13;3.88;;;2.33;;
60372;SDS011;46216;52.220;5.134;2023-08-17T06:04:38;5.40;;;2.17;;
60372;SDS011;46216;52.220;5.134;2023-08-17T06:07:04;6.80;;;2.53;;
60372;SDS011;46216;52.220;5.134;2023-08-17T06:09:29;7.18;;;2.30;;
60372;SDS011;46216;52.220;5.134;2023-08-17T06:11:54;5.03;;;2.15;;
60372;SDS011;46216;52.220;5.134;2023-08-17T06:14:20;5.88;;;2.15;;
60372;SDS011;46216;52.220;5.134;2023-08-17T06:16:47;3.63;;;2.30;;
60372;SDS011;46216;52.220;5.134;2023-08-17T06:19:12;5.53;;;2.20;;
60372;SDS011;46216;52.220;5.134;2023-08-17T06:21:38;5.40;;;2.60;;
60372;SDS011;46216;52.220;5.134;2023-08-17T06:24:03;7.32;;;2.60;;
60372;SDS011;46216;52.220;5.134;2023-08-17T06:26:29;8.55;;;2.55;;
60372;SDS011;46216;52.220;5.134;2023-08-17T06:28:54;7.30;;;2.70;;
60372;SDS011;46216;52.220;5.134;2023-08-17T06:31:20;4.85;;;2.50;;
60372;SDS011;46216;52.220;5.134;2023-08-17T06:33:45;7.07;;;2.90;;
60372;SDS011;46216;52.220;5.134;2023-08-17T06:36:11;5.00;;;2.40;;
60372;SDS011;46216;52.220;5.134;2023-08-17T06:38:41;4.90;;;2.47;;
60372;SDS011;46216;52.220;5.134;2023-08-17T06:41:07;6.85;;;2.50;;
60372;SDS011;46216;52.220;5.134;2023-08-17T06:43:32;6.13;;;2.55;;
60372;SDS011;46216;52.220;5.134;2023-08-17T06:45:58;5.78;;;2.70;;
60372;SDS011;46216;52.220;5.134;2023-08-17T06:48:25;5.97;;;2.40;;
60372;SDS011;46216;52.220;5.134;2023-08-17T06:50:50;7.07;;;2.67;;
60372;SDS011;46216;52.220;5.134;2023-08-17T06:53:16;5.70;;;2.38;;
60372;SDS011;46216;52.220;5.134;2023-08-17T06:55:41;5.95;;;2.30;;
60372;SDS011;46216;52.220;5.134;2023-08-17T06:58:07;7.35;;;2.47;;
60372;SDS011;46216;52.220;5.134;2023-08-17T07:00:32;5.75;;;2.35;;
60372;SDS011;46216;52.220;5.134;2023-08-17T07:02:58;5.55;;;2.30;;
60372;SDS011;46216;52.220;5.134;2023-08-17T07:05:24;6.90;;;2.65;;
60372;SDS011;46216;52.220;5.134;2023-08-17T07:07:49;4.85;;;2.25;;
60372;SDS011;46216;52.220;5.134;2023-08-17T07:10:15;5.82;;;2.25;;
60372;SDS011;46216;52.220;5.134;2023-08-17T07:12:41;5.03;;;2.50;;
60372;SDS011;46216;52.220;5.134;2023-08-17T07:15:07;5.63;;;2.15;;
60372;SDS011;46216;52.220;5.134;2023-08-17T07:17:33;7.68;;;2.22;;
60372;SDS011;46216;52.220;5.134;2023-08-17T07:19:59;4.53;;;2.40;;
60372;SDS011;46216;52.220;5.134;2023-08-17T07:22:25;5.13;;;2.42;;
60372;SDS011;46216;52.220;5.134;2023-08-17T07:24:50;5.47;;;2.20;;
60372;SDS011;46216;52.220;5.134;2023-08-17T07:27:15;6.75;;;2.00;;
60372;SDS011;46216;52.220;5.134;2023-08-17T07:29:41;6.45;;;2.35;;
60372;SDS011;46216;52.220;5.134;2023-08-17T07:32:06;3.50;;;2.13;;
60372;SDS011;46216;52.220;5.134;2023-08-17T07:34:32;4.50;;;2.20;;
60372;SDS011;46216;52.220;5.134;2023-08-17T07:36:58;6.05;;;2.60;;
60372;SDS011;46216;52.220;5.134;2023-08-17T07:39:23;5.95;;;2.08;;
60372;SDS011;46216;52.220;5.134;2023-08-17T07:41:48;3.80;;;1.92;;
60372;SDS011;46216;52.220;5.134;2023-08-17T07:44:14;4.03;;;2.08;;
60372;SDS011;46216;52.220;5.134;2023-08-17T07:46:39;3.45;;;2.00;;
60372;SDS011;46216;52.220;5.134;2023-08-17T07:49:05;5.03;;;2.03;;
60372;SDS011;46216;52.220;5.134;2023-08-17T07:51:31;5.35;;;2.40;;
60372;SDS011;46216;52.220;5.134;2023-08-17T07:53:59;7.90;;;2.40;;
60372;SDS011;46216;52.220;5.134;2023-08-17T07:56:25;5.03;;;2.00;;
60372;SDS011;46216;52.220;5.134;2023-08-17T07:58:50;6.65;;;2.08;;
60372;SDS011;46216;52.220;5.134;2023-08-17T08:01:15;4.60;;;2.20;;
60372;SDS011;46216;52.220;5.134;2023-08-17T08:03:41;3.92;;;1.98;;
60372;SDS011;46216;52.220;5.134;2023-08-17T08:06:06;6.05;;;2.60;;
60372;SDS011;46216;52.220;5.134;2023-08-17T08:08:31;5.97;;;2.17;;
60372;SDS011;46216;52.220;5.134;2023-08-17T08:10:58;9.30;;;2.70;;
60372;SDS011;46216;52.220;5.134;2023-08-17T08:13:23;5.00;;;2.38;;
60372;SDS011;46216;52.220;5.134;2023-08-17T08:15:49;3.72;;;2.25;;
60372;SDS011;46216;52.220;5.134;2023-08-17T08:18:14;6.43;;;2.20;;
60372;SDS011;46216;52.220;5.134;2023-08-17T08:20:40;4.03;;;2.10;;
60372;SDS011;46216;52.220;5.134;2023-08-17T08:23:05;3.75;;;2.13;;
60372;SDS011;46216;52.220;5.134;2023-08-17T08:25:31;5.25;;;2.00;;
60372;SDS011;46216;52.220;5.134;2023-08-17T08:27:56;5.38;;;2.28;;
60372;SDS011;46216;52.220;5.134;2023-08-17T08:30:21;5.22;;;2.40;;
60372;SDS011;46216;52.220;5.134;2023-08-17T08:32:47;5.18;;;2.03;;
60372;SDS011;46216;52.220;5.134;2023-08-17T08:35:13;4.93;;;2.10;;
60372;SDS011;46216;52.220;5.134;2023-08-17T08:37:38;7.28;;;2.20;;
60372;SDS011;46216;52.220;5.134;2023-08-17T08:40:04;6.05;;;2.30;;
60372;SDS011;46216;52.220;5.134;2023-08-17T08:42:36;4.40;;;1.98;;
60372;SDS011;46216;52.220;5.134;2023-08-17T08:45:01;4.20;;;2.13;;
60372;SDS011;46216;52.220;5.134;2023-08-17T08:47:27;4.68;;;2.20;;
60372;SDS011;46216;52.220;5.134;2023-08-17T08:50:00;5.90;;;2.20;;
60372;SDS011;46216;52.220;5.134;2023-08-17T08:52:35;3.20;;;2.13;;
60372;SDS011;46216;52.220;5.134;2023-08-17T08:55:05;3.80;;;2.03;;
60372;SDS011;46216;52.220;5.134;2023-08-17T08:57:43;4.38;;;2.20;;
60372;SDS011;46216;52.220;5.134;2023-08-17T09:00:09;4.85;;;2.20;;
60372;SDS011;46216;52.220;5.134;2023-08-17T09:02:36;4.47;;;2.33;;
60372;SDS011;46216;52.220;5.134;2023-08-17T09:05:02;5.50;;;2.30;;
60372;SDS011;46216;52.220;5.134;2023-08-17T09:07:31;5.93;;;2.28;;
60372;SDS011;46216;52.220;5.134;2023-08-17T09:09:58;8.05;;;2.80;;
60372;SDS011;46216;52.220;5.134;2023-08-17T09:12:24;10.45;;;2.80;;
60372;SDS011;46216;52.220;5.134;2023-08-17T09:14:49;6.22;;;2.50;;
60372;SDS011;46216;52.220;5.134;2023-08-17T09:17:22;7.38;;;2.10;;
60372;SDS011;46216;52.220;5.134;2023-08-17T09:19:48;7.32;;;2.40;;
60372;SDS011;46216;52.220;5.134;2023-08-17T09:22:16;5.05;;;2.42;;
60372;SDS011;46216;52.220;5.134;2023-08-17T09:24:47;5.45;;;1.90;;
60372;SDS011;46216;52.220;5.134;2023-08-17T09:27:13;3.58;;;2.05;;
60372;SDS011;46216;52.220;5.134;2023-08-17T09:29:40;7.47;;;2.17;;
60372;SDS011;46216;52.220;5.134;2023-08-17T09:32:10;4.88;;;2.00;;
60372;SDS011;46216;52.220;5.134;2023-08-17T09:34:41;5.68;;;1.98;;
60372;SDS011;46216;52.220;5.134;2023-08-17T09:37:07;6.38;;;2.10;;
60372;SDS011;46216;52.220;5.134;2023-08-17T09:39:32;5.25;;;1.95;;
60372;SDS011;46216;52.220;5.134;2023-08-17T09:41:59;5.53;;;1.98;;
60372;SDS011;46216;52.220;5.134;2023-08-17T09:44:24;6.38;;;2.00;;
60372;SDS011;46216;52.220;5.134;2023-08-17T09:46:50;6.18;;;2.17;;
60372;SDS011;46216;52.220;5.134;2023-08-17T09:49:17;5.35;;;2.20;;
60372;SDS011;46216;52.220;5.134;2023-08-17T09:51:43;6.35;;;2.10;;
60372;SDS011;46216;52.220;5.134;2023-08-17T09:54:22;3.78;;;1.80;;
60372;SDS011;46216;52.220;5.134;2023-08-17T09:56:51;5.75;;;2.50;;
60372;SDS011;46216;52.220;5.134;2023-08-17T09:59:17;5.82;;;1.70;;
60372;SDS011;46216;52.220;5.134;2023-08-17T10:01:43;5.68;;;1.95;;
60372;SDS011;46216;52.220;5.134;2023-08-17T10:04:11;6.88;;;2.60;;
60372;SDS011;46216;52.220;5.134;2023-08-17T10:06:39;6.72;;;2.35;;
60372;SDS011;46216;52.220;5.134;2023-08-17T10:09:07;5.47;;;2.60;;
60372;SDS011;46216;52.220;5.134;2023-08-17T10:11:37;4.10;;;2.08;;
60372;SDS011;46216;52.220;5.134;2023-08-17T10:14:08;4.63;;;2.10;;
60372;SDS011;46216;52.220;5.134;2023-08-17T10:19:11;6.13;;;2.30;;
60372;SDS011;46216;52.220;5.134;2023-08-17T10:21:46;5.00;;;2.40;;
60372;SDS011;46216;52.220;5.134;2023-08-17T10:24:18;5.72;;;2.38;;
60372;SDS011;46216;52.220;5.134;2023-08-17T10:26:44;5.63;;;2.40;;
60372;SDS011;46216;52.220;5.134;2023-08-17T10:29:10;5.68;;;2.30;;
60372;SDS011;46216;52.220;5.134;2023-08-17T10:31:37;5.60;;;2.40;;
60372;SDS011;46216;52.220;5.134;2023-08-17T10:34:03;5.47;;;2.40;;
60372;SDS011;46216;52.220;5.134;2023-08-17T10:36:30;6.32;;;2.65;;
60372;SDS011;46216;52.220;5.134;2023-08-17T10:41:48;6.78;;;2.70;;
60372;SDS011;46216;52.220;5.134;2023-08-17T10:44:17;5.03;;;2.47;;
60372;SDS011;46216;52.220;5.134;2023-08-17T10:49:48;4.63;;;2.67;;
60372;SDS011;46216;52.220;5.134;2023-08-17T10:52:14;3.83;;;3.00;;
60372;SDS011;46216;52.220;5.134;2023-08-17T10:54:49;6.25;;;2.80;;
60372;SDS011;46216;52.220;5.134;2023-08-17T10:57:24;4.13;;;2.60;;
60372;SDS011;46216;52.220;5.134;2023-08-17T11:02:38;5.28;;;2.65;;
60372;SDS011;46216;52.220;5.134;2023-08-17T11:05:04;7.25;;;2.72;;
60372;SDS011;46216;52.220;5.134;2023-08-17T11:07:40;6.93;;;3.13;;
60372;SDS011;46216;52.220;5.134;2023-08-17T11:10:13;5.32;;;3.38;;
60372;SDS011;46216;52.220;5.134;2023-08-17T11:12:53;6.18;;;3.22;;
60372;SDS011;46216;52.220;5.134;2023-08-17T11:15:24;6.15;;;3.30;;
60372;SDS011;46216;52.220;5.134;2023-08-17T11:17:51;5.53;;;3.15;;
60372;SDS011;46216;52.220;5.134;2023-08-17T11:20:17;4.45;;;2.83;;
60372;SDS011;46216;52.220;5.134;2023-08-17T11:22:43;5.88;;;2.97;;
60372;SDS011;46216;52.220;5.134;2023-08-17T11:25:08;6.00;;;2.90;;
60372;SDS011;46216;52.220;5.134;2023-08-17T11:27:34;4.40;;;2.75;;
60372;SDS011;46216;52.220;5.134;2023-08-17T11:29:59;4.93;;;2.90;;
60372;SDS011;46216;52.220;5.134;2023-08-17T11:32:25;6.75;;;3.03;;
60372;SDS011;46216;52.220;5.134;2023-08-17T11:34:51;6.63;;;2.83;;
60372;SDS011;46216;52.220;5.134;2023-08-17T11:37:17;7.45;;;2.67;;
60372;SDS011;46216;52.220;5.134;2023-08-17T11:39:42;7.63;;;3.10;;
60372;SDS011;46216;52.220;5.134;2023-08-17T11:42:07;7.90;;;3.20;;
60372;SDS011;46216;52.220;5.134;2023-08-17T11:44:33;6.22;;;2.85;;
60372;SDS011;46216;52.220;5.134;2023-08-17T11:46:59;6.30;;;3.10;;
60372;SDS011;46216;52.220;5.134;2023-08-17T11:49:24;5.38;;;3.00;;
60372;SDS011;46216;52.220;5.134;2023-08-17T11:51:52;5.47;;;3.13;;
60372;SDS011;46216;52.220;5.134;2023-08-17T11:54:18;5.55;;;2.83;;
60372;SDS011;46216;52.220;5.134;2023-08-17T11:56:43;5.97;;;3.05;;
60372;SDS011;46216;52.220;5.134;2023-08-17T11:59:09;7.10;;;3.30;;
60372;SDS011;46216;52.220;5.134;2023-08-17T12:01:39;6.88;;;3.17;;
60372;SDS011;46216;52.220;5.134;2023-08-17T12:04:05;5.00;;;3.47;;
60372;SDS011;46216;52.220;5.134;2023-08-17T12:06:31;5.45;;;2.95;;
60372;SDS011;46216;52.220;5.134;2023-08-17T12:08:56;5.30;;;3.13;;
60372;SDS011;46216;52.220;5.134;2023-08-17T12:11:23;7.45;;;3.38;;
60372;SDS011;46216;52.220;5.134;2023-08-17T12:13:50;7.45;;;3.45;;
60372;SDS011;46216;52.220;5.134;2023-08-17T12:16:16;7.57;;;3.47;;
60372;SDS011;46216;52.220;5.134;2023-08-17T12:18:52;5.07;;;3.00;;
60372;SDS011;46216;52.220;5.134;2023-08-17T12:21:22;6.03;;;3.22;;
60372;SDS011;46216;52.220;5.134;2023-08-17T12:23:47;6.50;;;3.45;;
60372;SDS011;46216;52.220;5.134;2023-08-17T12:26:20;5.57;;;2.95;;
60372;SDS011;46216;52.220;5.134;2023-08-17T12:28:46;6.70;;;3.58;;
60372;SDS011;46216;52.220;5.134;2023-08-17T12:31:12;7.03;;;3.15;;
60372;SDS011;46216;52.220;5.134;2023-08-17T12:33:37;7.57;;;3.60;;
60372;SDS011;46216;52.220;5.134;2023-08-17T12:36:03;5.80;;;3.22;;
60372;SDS011;46216;52.220;5.134;2023-08-17T12:38:29;7.63;;;3.05;;
60372;SDS011;46216;52.220;5.134;2023-08-17T12:40:54;4.85;;;2.70;;
60372;SDS011;46216;52.220;5.134;2023-08-17T12:43:20;4.35;;;2.95;;
60372;SDS011;46216;52.220;5.134;2023-08-17T12:45:46;6.03;;;3.15;;
60372;SDS011;46216;52.220;5.134;2023-08-17T12:48:11;5.13;;;3.08;;
60372;SDS011;46216;52.220;5.134;2023-08-17T12:50:36;8.00;;;3.20;;
60372;SDS011;46216;52.220;5.134;2023-08-17T12:53:02;4.97;;;2.95;;
60372;SDS011;46216;52.220;5.134;2023-08-17T12:55:27;6.78;;;3.50;;
60372;SDS011;46216;52.220;5.134;2023-08-17T12:57:53;6.35;;;3.78;;
60372;SDS011;46216;52.220;5.134;2023-08-17T13:00:18;6.72;;;4.00;;
60372;SDS011;46216;52.220;5.134;2023-08-17T13:02:43;9.50;;;3.83;;
60372;SDS011;46216;52.220;5.134;2023-08-17T13:05:11;7.20;;;3.60;;
60372;SDS011;46216;52.220;5.134;2023-08-17T13:07:37;6.97;;;3.53;;
60372;SDS011;46216;52.220;5.134;2023-08-17T13:10:02;6.78;;;3.85;;
60372;SDS011;46216;52.220;5.134;2023-08-17T13:12:28;7.57;;;3.35;;
60372;SDS011;46216;52.220;5.134;2023-08-17T13:14:53;7.68;;;3.72;;
60372;SDS011;46216;52.220;5.134;2023-08-17T13:17:18;6.85;;;3.85;;
60372;SDS011;46216;52.220;5.134;2023-08-17T13:19:44;5.30;;;3.55;;
60372;SDS011;46216;52.220;5.134;2023-08-17T13:22:09;4.50;;;3.42;;
60372;SDS011;46216;52.220;5.134;2023-08-17T13:24:35;9.00;;;3.85;;
60372;SDS011;46216;52.220;5.134;2023-08-17T13:27:01;7.00;;;3.65;;
60372;SDS011;46216;52.220;5.134;2023-08-17T13:29:26;5.40;;;3.95;;
60372;SDS011;46216;52.220;5.134;2023-08-17T13:31:51;6.95;;;4.20;;
60372;SDS011;46216;52.220;5.134;2023-08-17T13:34:17;6.75;;;3.70;;
60372;SDS011;46216;52.220;5.134;2023-08-17T13:36:42;5.90;;;3.72;;
60372;SDS011;46216;52.220;5.134;2023-08-17T13:39:08;5.53;;;3.47;;
60372;SDS011;46216;52.220;5.134;2023-08-17T13:41:33;5.93;;;3.88;;
60372;SDS011;46216;52.220;5.134;2023-08-17T13:43:58;5.55;;;3.83;;
60372;SDS011;46216;52.220;5.134;2023-08-17T13:46:25;6.43;;;3.35;;
60372;SDS011;46216;52.220;5.134;2023-08-17T13:48:51;4.63;;;3.83;;
60372;SDS011;46216;52.220;5.134;2023-08-17T13:51:16;6.70;;;3.90;;
60372;SDS011;46216;52.220;5.134;2023-08-17T13:53:42;7.07;;;3.72;;
60372;SDS011;46216;52.220;5.134;2023-08-17T13:56:07;4.72;;;3.45;;
60372;SDS011;46216;52.220;5.134;2023-08-17T13:58:33;6.55;;;3.75;;
60372;SDS011;46216;52.220;5.134;2023-08-17T14:00:58;6.00;;;3.60;;
60372;SDS011;46216;52.220;5.134;2023-08-17T14:03:24;3.78;;;3.38;;
60372;SDS011;46216;52.220;5.134;2023-08-17T14:05:50;6.70;;;3.78;;
60372;SDS011;46216;52.220;5.134;2023-08-17T14:08:15;6.95;;;3.72;;
60372;SDS011;46216;52.220;5.134;2023-08-17T14:10:41;4.50;;;3.42;;
60372;SDS011;46216;52.220;5.134;2023-08-17T14:13:06;6.47;;;3.42;;
60372;SDS011;46216;52.220;5.134;2023-08-17T14:15:32;5.30;;;3.20;;
60372;SDS011;46216;52.220;5.134;2023-08-17T14:17:57;5.55;;;3.50;;
60372;SDS011;46216;52.220;5.134;2023-08-17T14:20:23;4.00;;;3.15;;
60372;SDS011;46216;52.220;5.134;2023-08-17T14:22:48;6.68;;;3.30;;
60372;SDS011;46216;52.220;5.134;2023-08-17T14:25:14;4.53;;;3.50;;
60372;SDS011;46216;52.220;5.134;2023-08-17T14:27:41;5.45;;;3.40;;
60372;SDS011;46216;52.220;5.134;2023-08-17T14:30:12;4.70;;;3.05;;
60372;SDS011;46216;52.220;5.134;2023-08-17T14:32:37;5.80;;;3.33;;
60372;SDS011;46216;52.220;5.134;2023-08-17T14:35:03;5.85;;;3.63;;
60372;SDS011;46216;52.220;5.134;2023-08-17T14:37:28;6.97;;;4.47;;
60372;SDS011;46216;52.220;5.134;2023-08-17T14:39:54;5.32;;;4.30;;
60372;SDS011;46216;52.220;5.134;2023-08-17T14:42:19;5.60;;;4.20;;
60372;SDS011;46216;52.220;5.134;2023-08-17T14:44:45;7.50;;;3.97;;
60372;SDS011;46216;52.220;5.134;2023-08-17T14:47:10;4.55;;;3.67;;
60372;SDS011;46216;52.220;5.134;2023-08-17T14:49:36;4.97;;;3.50;;
60372;SDS011;46216;52.220;5.134;2023-08-17T14:52:01;4.93;;;3.50;;
60372;SDS011;46216;52.220;5.134;2023-08-17T14:54:26;4.72;;;3.50;;